Time;durP1;ratioP1;P1;durP2;ratioP2;P2;SDS_P1;SDS_P2;PMS_P1;PMS_P2;Temp;Humidity;BMP_temperature;BMP_pressure;BME280_temperature;BME280_humidity;BME280_pressure;Samples;Min_cycle;Max_cycle;Signal;HPM_P1;HPM_P2
2023/07/17 00:00:21;;;;;;;17.67;11.25;;;;;;;24.44;100.00;98647.03;4485271;31;20151;-67
2023/07/17 00:02:48;;;;;;;12.50;11.00;;;;;;;24.42;100.00;98645.63;4485598;31;20084;-67
2023/07/17 00:05:16;;;;;;;14.52;10.82;;;;;;;24.47;100.00;98645.78;4485442;32;20115;-67
2023/07/17 00:07:46;;;;;;;17.20;11.43;;;;;;;24.51;100.00;98646.13;4485461;31;20160;-67
2023/07/17 00:10:14;;;;;;;17.40;11.40;;;;;;;24.55;100.00;98644.63;4485481;32;20092;-68
2023/07/17 00:12:41;;;;;;;11.88;10.65;;;;;;;24.55;100.00;98647.28;4485624;31;20485;-68
2023/07/17 00:15:09;;;;;;;12.98;11.55;;;;;;;24.52;100.00;98648.56;4485424;31;20126;-67
2023/07/17 00:17:36;;;;;;;14.20;11.00;;;;;;;24.56;100.00;98644.37;4485450;32;20096;-67
2023/07/17 00:20:12;;;;;;;13.73;11.02;;;;;;;24.53;100.00;98650.22;4500978;31;20179;-67
2023/07/17 00:22:40;;;;;;;16.02;10.65;;;;;;;24.54;100.00;98648.34;4501346;31;20103;-67
2023/07/17 00:25:08;;;;;;;14.07;10.85;;;;;;;24.51;100.00;98644.28;4501319;31;20144;-67
2023/07/17 00:27:35;;;;;;;19.60;10.43;;;;;;;24.48;100.00;98658.09;4501170;31;20160;-68
2023/07/17 00:30:03;;;;;;;16.52;11.05;;;;;;;24.46;100.00;98654.84;4500988;31;20129;-67
2023/07/17 00:32:31;;;;;;;15.32;11.30;;;;;;;24.47;100.00;98651.13;4501345;31;20163;-67
2023/07/17 00:34:59;;;;;;;13.85;10.05;;;;;;;24.47;100.00;98664.53;4501312;31;20103;-67
2023/07/17 00:37:26;;;;;;;12.60;10.45;;;;;;;24.47;100.00;98655.66;4501244;31;20100;-67
2023/07/17 00:39:54;;;;;;;16.48;11.12;;;;;;;24.40;100.00;98666.47;4501051;31;20104;-67
2023/07/17 00:42:23;;;;;;;12.93;10.30;;;;;;;24.38;100.00;98657.88;4500924;31;20088;-67
2023/07/17 00:44:50;;;;;;;15.02;12.30;;;;;;;24.39;100.00;98659.47;4500848;31;20123;-67
2023/07/17 00:47:19;;;;;;;12.65;11.12;;;;;;;24.36;100.00;98654.59;4501022;31;20099;-67
2023/07/17 00:49:48;;;;;;;12.52;10.77;;;;;;;24.34;100.00;98657.50;4500678;31;20458;-67
2023/07/17 00:52:17;;;;;;;11.60;10.40;;;;;;;24.34;100.00;98662.84;4490046;31;20112;-67
2023/07/17 00:54:44;;;;;;;14.20;10.90;;;;;;;24.36;100.00;98663.47;4485138;31;20466;-68
2023/07/17 00:57:14;;;;;;;13.50;10.93;;;;;;;24.26;100.00;98660.50;4484900;32;20118;-67
2023/07/17 00:59:42;;;;;;;14.80;11.95;;;;;;;24.15;100.00;98659.44;4484064;32;20360;-67
2023/07/17 01:02:10;;;;;;;14.32;11.48;;;;;;;24.14;100.00;98654.31;4483691;32;20077;-68
2023/07/17 01:04:44;;;;;;;15.20;10.48;;;;;;;24.09;100.00;98645.09;4485094;31;20096;-67
2023/07/17 01:07:14;;;;;;;14.05;11.18;;;;;;;24.11;100.00;98647.56;4484964;31;20141;-67
2023/07/17 01:09:41;;;;;;;11.93;10.77;;;;;;;24.09;100.00;98649.66;4485282;31;20119;-67
2023/07/17 01:12:09;;;;;;;12.70;10.38;;;;;;;24.06;100.00;98655.47;4485112;31;20446;-67
2023/07/17 01:14:36;;;;;;;16.60;11.70;;;;;;;24.06;100.00;98655.47;4485053;31;20603;-67
2023/07/17 01:17:05;;;;;;;17.40;10.85;;;;;;;24.04;100.00;98652.19;4484993;32;20092;-68
2023/07/17 01:19:33;;;;;;;15.02;11.65;;;;;;;24.07;100.00;98662.44;4485038;31;20454;-67
2023/07/17 01:22:05;;;;;;;15.30;10.32;;;;;;;24.07;100.00;98654.41;4500637;31;20096;-68
2023/07/17 01:24:32;;;;;;;13.07;11.12;;;;;;;24.09;100.00;98644.31;4486525;31;20165;-67
2023/07/17 01:26:59;;;;;;;13.98;10.43;;;;;;;24.08;100.00;98645.34;4500679;31;20465;-67
2023/07/17 01:29:26;;;;;;;12.90;11.43;;;;;;;24.11;100.00;98644.87;4500880;31;20462;-67
2023/07/17 01:31:53;;;;;;;14.60;10.43;;;;;;;24.05;100.00;98643.13;4500505;31;20097;-67
2023/07/17 01:34:31;;;;;;;12.90;10.88;;;;;;;24.02;100.00;98639.03;4500891;31;20140;-67
2023/07/17 01:36:58;;;;;;;13.23;10.68;;;;;;;24.01;100.00;98636.56;4500434;31;20096;-67
2023/07/17 01:39:26;;;;;;;16.65;10.68;;;;;;;24.01;100.00;98636.56;4500743;31;20088;-67
2023/07/17 01:41:54;;;;;;;11.88;10.52;;;;;;;24.04;100.00;98638.78;4500523;31;20104;-68
2023/07/17 01:44:21;;;;;;;11.18;9.23;;;;;;;24.03;100.00;98642.53;4500559;31;20118;-67
2023/07/17 01:46:48;;;;;;;10.80;9.63;;;;;;;24.00;100.00;98640.31;4500630;31;20503;-67
2023/07/17 01:49:16;;;;;;;10.68;9.57;;;;;;;23.99;100.00;98644.03;4500383;31;20486;-67
2023/07/17 01:51:44;;;;;;;13.25;10.00;;;;;;;23.95;100.00;98650.88;4492829;31;20088;-67
2023/07/17 01:54:12;;;;;;;10.35;8.80;;;;;;;23.95;100.00;98646.31;4484692;31;20096;-67
2023/07/17 01:56:39;;;;;;;12.68;9.90;;;;;;;23.92;100.00;98644.94;4484644;31;20087;-67
2023/07/17 01:59:07;;;;;;;11.15;8.70;;;;;;;23.92;100.00;98649.44;4484641;32;20088;-67
2023/07/17 02:01:34;;;;;;;11.02;8.52;;;;;;;23.91;100.00;98650.53;4484875;31;20093;-68
2023/07/17 02:04:02;;;;;;;13.98;8.70;;;;;;;23.90;99.92;98654.22;4484308;32;20103;-67
2023/07/17 02:06:31;;;;;;;14.48;8.55;;;;;;;23.92;99.90;98657.47;4484831;31;20118;-67
2023/07/17 02:08:58;;;;;;;11.25;8.98;;;;;;;23.88;100.00;98665.16;4483496;31;20458;-68
2023/07/17 02:11:29;;;;;;;10.70;8.80;;;;;;;23.82;100.00;98665.22;4484538;31;20141;-67
2023/07/17 02:13:56;;;;;;;9.43;8.40;;;;;;;23.76;100.00;98669.63;4484319;31;20235;-67
2023/07/17 02:16:24;;;;;;;13.18;8.80;;;;;;;23.76;100.00;98666.94;4500383;31;20580;-67
2023/07/17 02:18:53;;;;;;;11.30;9.00;;;;;;;23.80;100.00;98678.81;4500156;31;20092;-68
2023/07/17 02:21:20;;;;;;;13.07;8.27;;;;;;;23.78;100.00;98677.41;4500080;31;20096;-68
2023/07/17 02:23:48;;;;;;;9.52;8.32;;;;;;;23.84;99.42;98679.19;4500055;31;20115;-67
2023/07/17 02:26:17;;;;;;;12.23;8.48;;;;;;;23.90;98.50;98678.31;4500136;31;20096;-67
2023/07/17 02:28:44;;;;;;;11.82;8.05;;;;;;;23.94;98.58;98689.37;4499883;31;20096;-67
2023/07/17 02:31:11;;;;;;;10.70;8.65;;;;;;;23.90;98.55;98689.81;4500044;31;20092;-67
2023/07/17 02:33:39;;;;;;;11.30;8.60;;;;;;;23.87;98.94;98695.63;4499851;31;20526;-67
2023/07/17 02:36:06;;;;;;;13.00;9.00;;;;;;;23.79;99.86;98703.13;4499999;31;20502;-67
2023/07/17 02:38:35;;;;;;;11.20;8.98;;;;;;;23.76;100.00;98704.38;4499847;31;20122;-67
2023/07/17 02:41:03;;;;;;;11.65;9.10;;;;;;;23.68;100.00;98724.22;4499816;31;20088;-67
2023/07/17 02:43:31;;;;;;;12.98;9.57;;;;;;;23.45;100.00;98722.22;4499962;31;20157;-68
2023/07/17 02:45:58;;;;;;;11.70;8.93;;;;;;;23.45;100.00;98727.59;4499585;31;20100;-67
2023/07/17 02:48:26;;;;;;;12.75;9.75;;;;;;;23.26;100.00;98725.94;4499670;31;20452;-67
2023/07/17 02:50:54;;;;;;;15.85;10.13;;;;;;;23.17;100.00;98718.16;4497428;31;20080;-67
2023/07/17 02:53:21;;;;;;;15.38;9.57;;;;;;;23.11;100.00;98713.72;4483593;31;20784;-67
2023/07/17 02:55:49;;;;;;;11.55;9.65;;;;;;;23.02;100.00;98706.97;4484034;31;20161;-67
2023/07/17 02:58:19;;;;;;;11.70;9.45;;;;;;;23.06;100.00;98707.34;4483732;31;20105;-67
2023/07/17 03:00:46;;;;;;;14.23;10.43;;;;;;;23.08;100.00;98713.31;4483853;31;20088;-67
2023/07/17 03:03:14;;;;;;;12.35;9.90;;;;;;;23.08;100.00;98721.31;4483630;31;20131;-67
2023/07/17 03:05:42;;;;;;;14.13;9.90;;;;;;;23.09;100.00;98715.78;4483996;31;20085;-68
2023/07/17 03:08:10;;;;;;;13.40;9.00;;;;;;;23.03;100.00;98713.97;4483554;32;20088;-67
2023/07/17 03:10:38;;;;;;;11.77;9.55;;;;;;;22.98;100.00;98708.44;4483657;32;20161;-67
2023/07/17 03:13:06;;;;;;;11.60;9.00;;;;;;;22.97;100.00;98709.50;4483623;31;20092;-67
2023/07/17 03:15:33;;;;;;;14.18;9.52;;;;;;;22.94;100.00;98712.63;4499375;31;20092;-67
2023/07/17 03:18:02;;;;;;;9.75;8.75;;;;;;;22.91;100.00;98718.38;4499300;31;20116;-67
2023/07/17 03:20:31;;;;;;;10.43;9.23;;;;;;;22.91;100.00;98718.38;4500973;31;20104;-67
2023/07/17 03:22:58;;;;;;;11.12;9.05;;;;;;;22.90;100.00;98711.41;4501605;31;20132;-67
2023/07/17 03:25:25;;;;;;;13.13;9.93;;;;;;;22.87;100.00;98723.34;4501440;31;20479;-67
2023/07/17 03:27:53;;;;;;;11.75;8.93;;;;;;;22.86;100.00;98711.84;4501898;31;20092;-67
2023/07/17 03:30:26;;;;;;;13.68;9.80;;;;;;;22.85;100.00;98715.53;4501801;31;20118;-67
2023/07/17 03:32:54;;;;;;;10.98;8.80;;;;;;;22.86;100.00;98717.19;4501531;31;20092;-67
2023/07/17 03:35:21;;;;;;;11.40;9.57;;;;;;;22.88;100.00;98708.97;4501383;31;20083;-67
2023/07/17 03:37:49;;;;;;;12.88;9.60;;;;;;;23.01;100.00;98713.34;4501532;31;20461;-68
2023/07/17 03:40:18;;;;;;;12.75;9.40;;;;;;;23.12;100.00;98715.34;4501512;31;20091;-67
2023/07/17 03:42:45;;;;;;;10.68;9.07;;;;;;;23.04;100.00;98708.41;4501472;31;20100;-67
2023/07/17 03:45:13;;;;;;;15.38;9.65;;;;;;;23.06;100.00;98710.88;4501625;31;20091;-67
2023/07/17 03:47:41;;;;;;;12.18;9.20;;;;;;;22.94;100.00;98707.28;4501386;31;20086;-67
2023/07/17 03:50:08;;;;;;;13.43;9.52;;;;;;;23.16;100.00;98702.34;4501524;31;20112;-67
2023/07/17 03:52:37;;;;;;;11.35;9.20;;;;;;;23.35;100.00;98711.22;4488006;31;20462;-67
2023/07/17 03:55:04;;;;;;;16.87;9.20;;;;;;;23.51;100.00;98710.66;4485505;31;20473;-68
2023/07/17 03:57:32;;;;;;;10.43;8.48;;;;;;;23.62;100.00;98711.75;4485659;31;20152;-68
2023/07/17 04:00:00;;;;;;;13.50;8.88;;;;;;;23.67;100.00;98716.44;4485772;31;20170;-67
2023/07/17 04:02:28;;;;;;;10.30;8.35;;;;;;;23.86;100.00;98714.56;4485575;32;20152;-68
2023/07/17 04:04:56;;;;;;;12.00;8.05;;;;;;;24.08;97.18;98710.38;4485151;31;20153;-69
2023/07/17 04:07:24;;;;;;;12.43;9.30;;;;;;;24.26;97.54;98714.06;4485239;32;20106;-69
2023/07/17 04:09:51;;;;;;;10.23;8.20;;;;;;;24.35;97.46;98711.88;4485563;31;20081;-68
2023/07/17 04:12:20;;;;;;;11.73;8.30;;;;;;;24.45;97.51;98712.13;4485720;32;20162;-69
2023/07/17 04:14:47;;;;;;;11.32;8.48;;;;;;;24.53;96.33;98708.31;4485741;31;20103;-69
2023/07/17 04:17:14;;;;;;;17.30;8.30;;;;;;;24.67;94.05;98712.44;4501117;31;20084;-69
2023/07/17 04:19:43;;;;;;;12.43;8.50;;;;;;;24.84;92.24;98709.91;4487551;31;20165;-69
2023/07/17 04:22:11;;;;;;;15.57;7.90;;;;;;;24.99;91.51;98706.75;4483834;31;20174;-69
2023/07/17 04:24:39;;;;;;;12.75;9.05;;;;;;;25.15;91.45;98702.59;4484685;31;20101;-68
2023/07/17 04:27:07;;;;;;;14.45;8.68;;;;;;;25.31;93.38;98704.59;4484239;32;20456;-69
2023/07/17 04:29:34;;;;;;;13.35;8.80;;;;;;;25.48;92.42;98722.63;4483218;32;20123;-69
2023/07/17 04:32:02;;;;;;;11.15;8.73;;;;;;;25.68;93.35;98720.37;4482353;32;20093;-69
2023/07/17 04:34:31;;;;;;;11.30;8.07;;;;;;;25.71;89.11;98719.09;4484390;32;20096;-69
2023/07/17 04:36:58;;;;;;;14.32;8.52;;;;;;;25.78;89.00;98729.69;4485291;32;20565;-69
2023/07/17 04:39:26;;;;;;;13.80;8.00;;;;;;;25.92;91.18;98720.31;4484568;32;20462;-69
2023/07/17 04:41:56;;;;;;;11.90;8.32;;;;;;;26.09;89.18;98716.91;4485590;32;20123;-69
2023/07/17 04:44:23;;;;;;;12.55;8.13;;;;;;;26.25;89.52;98721.47;4483956;32;20092;-69
2023/07/17 04:46:51;;;;;;;14.38;7.87;;;;;;;26.36;87.31;98722.50;4484103;32;20080;-69
2023/07/17 04:49:19;;;;;;;15.20;7.97;;;;;;;26.45;85.13;98722.91;4484849;32;20076;-69
2023/07/17 04:51:47;;;;;;;16.48;8.32;;;;;;;26.61;83.88;98721.31;4477615;32;20160;-69
2023/07/17 04:54:15;;;;;;;11.82;7.20;;;;;;;26.84;82.96;98720.34;4469637;32;20192;-69
2023/07/17 04:56:43;;;;;;;11.02;7.85;;;;;;;27.05;80.44;98726.88;4469392;32;20119;-69
2023/07/17 04:59:12;;;;;;;18.33;7.90;;;;;;;27.23;79.83;98734.66;4469459;32;20092;-69
2023/07/17 05:01:41;;;;;;;10.70;7.43;;;;;;;27.26;78.22;98736.06;4469610;32;20167;-69
2023/07/17 05:04:08;;;;;;;10.05;6.90;;;;;;;27.38;76.49;98731.41;4469631;32;20092;-69
2023/07/17 05:06:36;;;;;;;9.73;7.32;;;;;;;27.42;74.29;98727.16;4469455;32;20489;-69
2023/07/17 05:09:04;;;;;;;12.85;7.10;;;;;;;27.50;73.09;98728.59;4469698;32;20097;-69
2023/07/17 05:11:32;;;;;;;8.20;6.53;;;;;;;27.64;71.68;98731.75;4469648;32;20097;-69
2023/07/17 05:14:00;;;;;;;12.18;7.00;;;;;;;27.90;71.84;98732.84;4469377;32;20533;-69
2023/07/17 05:16:27;;;;;;;11.20;6.78;;;;;;;28.01;70.50;98739.22;4469157;32;20096;-68
2023/07/17 05:18:55;;;;;;;9.88;6.28;;;;;;;28.10;69.09;98740.41;4469675;32;20132;-68
2023/07/17 05:21:23;;;;;;;12.57;6.80;;;;;;;28.26;69.11;98737.88;4469107;32;20114;-68
2023/07/17 05:23:51;;;;;;;9.38;6.03;;;;;;;28.52;68.76;98738.13;4469408;32;20120;-68
2023/07/17 05:26:20;;;;;;;10.98;7.03;;;;;;;28.65;67.64;98732.34;4468979;32;20532;-68
2023/07/17 05:29:02;;;;;;;10.45;6.50;;;;;;;28.73;66.73;98728.34;4469462;32;20408;-68
2023/07/17 05:31:30;;;;;;;11.88;6.22;;;;;;;28.87;66.95;98734.13;4469162;32;20162;-68
2023/07/17 05:33:57;;;;;;;9.93;5.90;;;;;;;29.03;66.43;98733.16;4468849;32;20449;-68
2023/07/17 05:36:24;;;;;;;9.55;5.65;;;;;;;29.11;62.91;98742.66;4468544;32;20131;-68
2023/07/17 05:38:52;;;;;;;6.90;5.37;;;;;;;28.89;64.37;98737.38;4473133;32;20148;-68
2023/07/17 05:41:19;;;;;;;6.55;5.50;;;;;;;28.71;62.84;98736.69;4468173;32;20482;-68
2023/07/17 05:43:48;;;;;;;10.35;5.60;;;;;;;28.64;63.68;98741.50;4466363;32;20116;-68
2023/07/17 05:46:16;;;;;;;14.13;5.40;;;;;;;28.72;64.12;98732.94;4457763;32;20528;-68
2023/07/17 05:48:43;;;;;;;11.90;5.97;;;;;;;28.94;63.26;98734.72;4466547;32;20112;-68
2023/07/17 05:51:11;;;;;;;15.15;5.55;;;;;;;29.04;62.82;98740.19;4475429;31;20214;-67
2023/07/17 05:53:39;;;;;;;10.68;5.57;;;;;;;28.99;61.98;98732.88;4484107;31;20434;-68
2023/07/17 05:56:06;;;;;;;7.12;5.18;;;;;;;28.92;61.31;98739.53;4480212;31;20100;-68
2023/07/17 05:58:34;;;;;;;9.07;5.65;;;;;;;29.04;61.32;98740.19;4483440;31;20100;-68
2023/07/17 06:01:02;;;;;;;14.40;5.25;;;;;;;29.00;61.26;98744.47;4478431;31;20146;-68
2023/07/17 06:03:30;;;;;;;8.57;5.50;;;;;;;29.26;60.74;98750.06;4478880;31;20105;-68
2023/07/17 06:05:57;;;;;;;12.35;4.90;;;;;;;29.28;60.48;98740.66;4475923;31;20108;-68
2023/07/17 06:08:24;;;;;;;28.02;6.65;;;;;;;29.40;59.50;98745.81;4477202;31;20461;-68
2023/07/17 06:10:52;;;;;;;11.02;5.53;;;;;;;29.36;59.15;98747.44;4478180;31;20454;-68
2023/07/17 06:13:20;;;;;;;10.45;4.95;;;;;;;29.37;59.69;98741.78;4480275;31;20080;-68
2023/07/17 06:15:48;;;;;;;31.08;6.43;;;;;;;29.40;58.71;98745.03;4479590;31;20103;-68
2023/07/17 06:18:17;;;;;;;20.35;6.72;;;;;;;29.61;57.94;98738.66;4477864;31;20135;-68
2023/07/17 06:20:44;;;;;;;59.05;10.43;;;;;;;29.76;57.26;98737.91;4479823;31;20202;-68
2023/07/17 06:23:12;;;;;;;23.55;7.45;;;;;;;29.80;57.38;98736.31;4474224;31;20164;-68
2023/07/17 06:25:41;;;;;;;12.55;5.20;;;;;;;29.98;56.98;98736.94;4478687;31;20921;-68
2023/07/17 06:28:09;;;;;;;23.83;7.12;;;;;;;29.95;57.25;98738.28;4479561;31;20716;-68
2023/07/17 06:30:37;;;;;;;12.73;5.90;;;;;;;30.04;57.59;98741.28;4477244;31;20183;-68
2023/07/17 06:33:04;;;;;;;8.88;5.00;;;;;;;29.94;57.66;98735.84;4479527;31;20096;-68
2023/07/17 06:35:32;;;;;;;7.07;4.80;;;;;;;30.07;56.00;98746.16;4480810;31;20100;-68
2023/07/17 06:37:59;;;;;;;8.07;4.53;;;;;;;30.27;56.15;98746.19;4478171;31;20511;-68
2023/07/17 06:40:27;;;;;;;6.32;5.37;;;;;;;30.19;55.14;98738.63;4478576;32;20202;-68
2023/07/17 06:42:56;;;;;;;6.03;5.30;;;;;;;30.26;54.99;98743.75;4479783;31;20147;-68
2023/07/17 06:45:23;;;;;;;7.00;5.28;;;;;;;30.19;55.57;98738.63;4480239;31;20096;-68
2023/07/17 06:47:50;;;;;;;7.22;5.10;;;;;;;30.39;55.69;98743.25;4479937;31;20116;-68
2023/07/17 06:50:19;;;;;;;13.05;5.43;;;;;;;30.56;54.84;98731.41;4477504;31;20140;-68
2023/07/17 06:52:47;;;;;;;7.03;4.90;;;;;;;30.43;54.55;98738.13;4479461;31;20130;-68
2023/07/17 06:55:16;;;;;;;9.90;5.10;;;;;;;30.48;53.45;98740.03;4481313;31;20401;-68
2023/07/17 06:57:43;;;;;;;11.12;5.28;;;;;;;30.37;54.62;98740.00;4482913;31;20101;-68
2023/07/17 07:00:11;;;;;;;10.30;6.00;;;;;;;30.39;54.98;98737.84;4481856;31;20155;-68
2023/07/17 07:02:39;;;;;;;13.02;5.80;;;;;;;30.75;54.28;98737.06;4480018;31;20099;-68
2023/07/17 07:05:07;;;;;;;108.70;13.23;;;;;;;30.60;54.78;98744.13;4482499;31;20115;-68
2023/07/17 07:07:34;;;;;;;9.82;5.85;;;;;;;30.64;54.92;98740.88;4480907;31;20108;-68
2023/07/17 07:10:02;;;;;;;17.25;5.87;;;;;;;30.66;54.72;98736.84;4478317;31;20107;-68
2023/07/17 07:12:29;;;;;;;73.72;10.45;;;;;;;30.88;53.86;98738.44;4476608;31;20455;-68
2023/07/17 07:14:57;;;;;;;25.58;6.28;;;;;;;31.06;54.44;98739.81;4481847;31;20557;-68
2023/07/17 07:17:25;;;;;;;10.80;5.15;;;;;;;31.30;52.87;98745.44;4481678;31;20168;-68
2023/07/17 07:19:52;;;;;;;6.37;5.35;;;;;;;31.55;52.24;98741.88;4478441;31;20112;-68
2023/07/17 07:22:20;;;;;;;9.43;5.55;;;;;;;31.78;51.76;98734.19;4478154;31;20167;-68
2023/07/17 07:24:48;;;;;;;7.87;5.68;;;;;;;31.92;51.41;98732.53;4482458;31;20127;-68
2023/07/17 07:27:15;;;;;;;6.53;5.90;;;;;;;31.90;50.05;98740.12;4479287;31;20152;-68
2023/07/17 07:29:43;;;;;;;9.05;5.95;;;;;;;32.07;50.74;98736.22;4479474;31;20500;-68
2023/07/17 07:32:11;;;;;;;6.37;5.30;;;;;;;31.61;50.46;98742.66;4478150;31;20523;-68
2023/07/17 07:34:40;;;;;;;10.48;5.82;;;;;;;31.67;50.75;98726.16;4480484;31;20126;-68
2023/07/17 07:37:09;;;;;;;6.60;5.68;;;;;;;31.73;51.19;98726.09;4477110;31;20120;-68
2023/07/17 07:39:37;;;;;;;9.55;5.45;;;;;;;31.81;50.03;98722.81;4482231;31;20126;-68
2023/07/17 07:42:06;;;;;;;13.70;5.80;;;;;;;31.77;51.36;98719.06;4476256;31;20159;-68
2023/07/17 07:44:34;;;;;;;9.73;5.82;;;;;;;31.90;49.94;98721.16;4476330;31;20313;-68
2023/07/17 07:47:05;;;;;;;7.15;5.80;;;;;;;32.16;51.49;98724.56;4481003;31;20101;-68
2023/07/17 07:49:33;;;;;;;6.60;5.20;;;;;;;32.17;47.69;98730.78;4478202;31;20132;-68
2023/07/17 07:52:02;;;;;;;10.05;5.72;;;;;;;32.24;47.39;98733.19;4481815;31;20104;-68
2023/07/17 07:54:30;;;;;;;7.12;6.00;;;;;;;32.25;48.81;98732.09;4479015;31;20131;-68
2023/07/17 07:56:58;;;;;;;8.50;5.55;;;;;;;32.21;48.74;98731.06;4478237;31;20184;-68
2023/07/17 07:59:26;;;;;;;6.25;5.65;;;;;;;32.44;48.59;98726.81;4475129;31;20124;-68
2023/07/17 08:01:54;;;;;;;7.93;5.68;;;;;;;32.49;47.90;98732.19;4477747;31;20151;-68
2023/07/17 08:04:21;;;;;;;6.37;5.53;;;;;;;32.48;46.96;98727.87;4478529;31;20088;-68
2023/07/17 08:06:49;;;;;;;7.32;5.35;;;;;;;32.63;46.80;98738.59;4480639;32;20110;-68
2023/07/17 08:09:16;;;;;;;12.82;5.55;;;;;;;32.64;47.50;98737.50;4480764;31;20097;-68
2023/07/17 08:11:45;;;;;;;9.02;5.60;;;;;;;32.90;46.41;98731.88;4479884;32;20375;-68
2023/07/17 08:14:15;;;;;;;6.93;5.50;;;;;;;33.02;44.41;98729.63;4478845;31;20138;-68
2023/07/17 08:16:42;;;;;;;10.95;5.75;;;;;;;32.93;44.95;98725.91;4479995;31;20169;-68
2023/07/17 08:19:12;;;;;;;7.40;5.53;;;;;;;32.86;44.96;98728.16;4473794;31;20116;-68
2023/07/17 08:21:39;;;;;;;11.57;5.82;;;;;;;33.13;43.90;98724.06;4478058;31;20129;-68
2023/07/17 08:24:07;;;;;;;6.70;5.45;;;;;;;33.31;44.54;98717.12;4479800;31;20160;-68
2023/07/17 08:26:38;;;;;;;11.32;6.10;;;;;;;33.12;46.72;98722.47;4478225;31;20519;-68
2023/07/17 08:29:07;;;;;;;7.87;5.68;;;;;;;33.40;45.17;98724.38;4480249;31;20100;-68
2023/07/17 08:31:35;;;;;;;6.45;5.53;;;;;;;33.59;44.84;98734.47;4480280;31;20122;-68
2023/07/17 08:34:06;;;;;;;7.90;5.62;;;;;;;33.77;43.66;98738.34;4478971;31;20092;-67
2023/07/17 08:36:34;;;;;;;7.68;6.12;;;;;;;33.82;43.58;98732.84;4476173;31;20135;-67
2023/07/17 08:39:04;;;;;;;8.15;6.07;;;;;;;33.94;43.58;98733.22;4480188;31;20182;-67
2023/07/17 08:41:33;;;;;;;7.05;5.70;;;;;;;33.99;43.48;98739.69;4479273;31;20088;-67
2023/07/17 08:44:03;;;;;;;20.77;7.57;;;;;;;33.73;43.33;98742.75;4467011;31;20159;-67
2023/07/17 08:46:31;;;;;;;15.15;5.82;;;;;;;33.72;43.80;98741.09;4477486;31;20108;-67
2023/07/17 08:49:00;;;;;;;6.65;5.95;;;;;;;33.78;44.17;98743.50;4477935;31;20141;-67
2023/07/17 08:51:30;;;;;;;9.75;6.60;;;;;;;34.03;45.22;98743.44;4475240;32;20103;-67
2023/07/17 08:53:59;;;;;;;9.95;6.07;;;;;;;33.98;42.94;98744.34;4480240;31;20087;-67
2023/07/17 08:56:49;;;;;;;7.97;6.15;;;;;;;34.04;43.01;98740.44;4476200;31;20571;-67
2023/07/17 08:59:19;;;;;;;7.85;6.68;;;;;;;34.37;43.36;98737.84;4475774;31;20584;-67
2023/07/17 09:01:49;;;;;;;7.12;5.97;;;;;;;34.47;44.61;98737.66;4476252;32;20108;-67
2023/07/17 09:04:17;;;;;;;11.73;7.07;;;;;;;34.55;44.23;98736.19;4477252;31;20420;-67
2023/07/17 09:06:45;;;;;;;7.95;6.50;;;;;;;34.66;45.10;98745.00;4478102;31;20126;-67
2023/07/17 09:09:15;;;;;;;10.35;6.57;;;;;;;34.46;45.08;98721.63;4476308;31;20429;-67
2023/07/17 09:11:43;;;;;;;9.00;7.30;;;;;;;34.61;43.71;98745.06;4479223;31;20091;-67
2023/07/17 09:14:10;;;;;;;9.57;7.75;;;;;;;34.87;43.92;98744.66;4475778;31;20181;-67
2023/07/17 09:16:40;;;;;;;8.30;6.97;;;;;;;34.94;43.14;98745.91;4477800;31;20140;-67
2023/07/17 09:19:07;;;;;;;8.60;6.50;;;;;;;34.99;43.37;98742.28;4476600;31;20096;-67
2023/07/17 09:21:40;;;;;;;11.63;6.90;;;;;;;34.87;42.86;98736.50;4482164;31;20120;-67
2023/07/17 09:24:08;;;;;;;9.35;7.53;;;;;;;34.99;43.23;98732.22;4481233;31;20145;-67
2023/07/17 09:26:35;;;;;;;9.43;7.00;;;;;;;35.31;43.13;98737.94;4474523;32;20137;-67
2023/07/17 09:29:03;;;;;;;12.25;7.37;;;;;;;35.08;42.32;98732.34;4480721;32;20122;-67
2023/07/17 09:31:32;;;;;;;14.70;7.55;;;;;;;35.25;42.50;98737.19;4476041;31;20440;-67
2023/07/17 09:34:01;;;;;;;9.70;7.28;;;;;;;35.32;41.74;98731.34;4480563;31;20091;-68
2023/07/17 09:36:29;;;;;;;8.75;7.82;;;;;;;35.01;41.72;98732.72;4495123;31;20506;-68
2023/07/17 09:38:58;;;;;;;10.63;6.47;;;;;;;34.62;42.70;98733.09;4482152;31;20176;-68
2023/07/17 09:41:27;;;;;;;17.30;7.95;;;;;;;35.08;42.98;98737.78;4481806;31;20457;-67
2023/07/17 09:44:01;;;;;;;10.68;7.28;;;;;;;35.12;41.99;98727.87;4482130;31;20120;-67
2023/07/17 09:46:30;;;;;;;11.30;8.60;;;;;;;34.44;43.21;98724.66;4479382;31;20152;-67
2023/07/17 09:48:58;;;;;;;9.85;6.72;;;;;;;35.21;42.01;98735.37;4482139;31;20088;-67
2023/07/17 09:51:26;;;;;;;10.93;7.47;;;;;;;35.40;41.31;98730.66;4482328;31;20148;-67
2023/07/17 09:53:55;;;;;;;15.13;7.00;;;;;;;35.52;41.03;98730.13;4478276;31;20103;-67
2023/07/17 09:56:30;;;;;;;10.65;7.50;;;;;;;35.59;40.50;98724.31;4478359;32;20097;-67
2023/07/17 09:59:18;;;;;;;7.85;6.87;;;;;;;35.71;40.32;98724.59;4483229;31;20097;-67
2023/07/17 10:01:48;;;;;;;14.45;7.07;;;;;;;36.03;41.18;98720.09;4474822;31;20157;-67
2023/07/17 10:04:41;;;;;;;13.20;7.80;;;;;;;36.42;40.04;98724.94;4481233;31;20099;-67
2023/07/17 10:07:09;;;;;;;;;;;;;;;35.69;39.51;98718.66;4485007;31;20081;-68
2023/07/17 10:09:37;;;;;;;9.70;7.28;;;;;;;35.65;41.94;98717.62;4482613;31;20010;-69
2023/07/17 10:12:08;;;;;;;9.25;7.50;;;;;;;35.48;41.62;98719.06;4483945;31;20077;-68
2023/07/17 10:14:36;;;;;;;12.98;7.40;;;;;;;36.10;41.74;98712.31;4484102;31;20095;-69
2023/07/17 10:17:22;;;;;;;14.60;8.07;;;;;;;36.31;41.06;98712.69;4477772;31;20125;-68
2023/07/17 10:19:50;;;;;;;11.02;7.82;;;;;;;36.53;39.24;98709.12;4483843;31;20109;-70
2023/07/17 10:22:17;;;;;;;7.97;7.03;;;;;;;36.76;39.13;98706.41;4485673;31;20120;-70
2023/07/17 10:24:45;;;;;;;12.48;7.47;;;;;;;36.92;40.15;98715.81;4483907;31;20450;-69
2023/07/17 10:27:13;;;;;;;9.50;7.80;;;;;;;37.12;37.68;98716.41;4474065;31;20524;-69
2023/07/17 10:29:43;;;;;;;9.15;7.78;;;;;;;37.26;38.04;98708.94;4482257;31;20165;-69
2023/07/17 10:32:13;;;;;;;9.35;8.40;;;;;;;37.34;38.49;98703.81;4494782;31;20092;-68
2023/07/17 10:34:53;;;;;;;10.30;7.20;;;;;;;37.25;38.07;98690.94;4481490;32;20512;-68
2023/07/17 10:37:32;;;;;;;8.20;7.43;;;;;;;37.02;37.58;98689.34;4482471;31;20093;-68
2023/07/17 10:40:06;;;;;;;11.35;7.50;;;;;;;36.73;38.41;98685.16;4482073;31;20619;-67
2023/07/17 10:42:36;;;;;;;9.63;7.37;;;;;;;36.97;39.21;98694.97;4482111;31;20910;-69
2023/07/17 10:45:11;;;;;;;8.90;7.22;;;;;;;37.21;37.05;98681.72;4481447;31;20588;-68
2023/07/17 10:47:39;;;;;;;9.13;7.55;;;;;;;37.45;38.19;98683.28;4481870;31;20118;-66
2023/07/17 10:50:08;;;;;;;9.95;7.25;;;;;;;37.70;35.96;98684.47;4470719;32;20101;-68
2023/07/17 10:52:35;;;;;;;9.80;6.85;;;;;;;37.68;36.80;98685.91;4479214;32;20217;-68
2023/07/17 10:55:06;;;;;;;9.07;7.50;;;;;;;37.60;38.19;98684.75;4470907;32;20092;-68
2023/07/17 10:57:36;;;;;;;8.50;7.22;;;;;;;37.49;37.20;98686.16;4467305;32;20162;-69
2023/07/17 11:00:06;;;;;;;8.85;7.47;;;;;;;37.88;36.55;98685.28;4466359;32;20093;-69
2023/07/17 11:02:33;;;;;;;15.68;7.40;;;;;;;38.25;35.19;98688.53;4455782;32;20127;-69
2023/07/17 11:05:03;;;;;;;8.88;7.45;;;;;;;37.99;36.41;98686.59;4465927;32;20092;-69
2023/07/17 11:07:33;;;;;;;12.90;7.87;;;;;;;38.19;34.95;98684.38;4451980;32;20112;-68
2023/07/17 11:10:01;;;;;;;8.65;7.18;;;;;;;38.15;34.10;98678.69;4465675;32;20109;-68
2023/07/17 11:12:28;;;;;;;8.60;7.18;;;;;;;38.11;34.38;98672.28;4459899;32;20097;-67
2023/07/17 11:14:55;;;;;;;8.02;7.00;;;;;;;37.99;33.87;98669.38;4461082;32;20166;-67
2023/07/17 11:17:24;;;;;;;13.52;8.13;;;;;;;38.05;34.09;98670.00;4466813;32;20092;-68
2023/07/17 11:20:03;;;;;;;7.60;6.57;;;;;;;37.99;33.35;98670.19;4466294;32;20158;-69
2023/07/17 11:22:31;;;;;;;9.95;6.78;;;;;;;37.64;34.04;98664.66;4456342;32;20131;-69
2023/07/17 11:24:58;;;;;;;11.70;6.72;;;;;;;37.64;32.81;98664.66;4469226;32;20123;-69
2023/07/17 11:27:26;;;;;;;8.70;7.30;;;;;;;37.77;33.37;98660.19;4469127;32;20113;-69
2023/07/17 11:29:54;;;;;;;10.77;6.82;;;;;;;37.67;32.25;98659.66;4467545;32;20543;-69